createdAt,value
2018-10-09T00:00:48.437Z,1021.91
2018-10-09T00:01:48.115Z,1021.92
2018-10-09T00:02:47.871Z,1021.95
2018-10-09T00:03:48.178Z,1021.94
2018-10-09T00:04:48.169Z,1021.95
2018-10-09T00:05:47.944Z,1021.96
2018-10-09T00:06:48.136Z,1022
2018-10-09T00:07:48.433Z,1021.93
2018-10-09T00:08:47.989Z,1021.95
2018-10-09T00:09:48.065Z,1021.88
2018-10-09T00:10:47.998Z,1021.9
2018-10-09T00:11:47.993Z,1021.93
2018-10-09T00:12:48.189Z,1021.91
2018-10-09T00:13:48.137Z,1021.97
2018-10-09T00:14:48.179Z,1021.96
2018-10-09T00:15:48.370Z,1021.92
2018-10-09T00:16:48.053Z,1021.94
2018-10-09T00:17:48.072Z,1021.92
2018-10-09T00:18:47.938Z,1021.84
2018-10-09T00:19:47.980Z,1021.86
2018-10-09T00:20:47.905Z,1021.83
2018-10-09T00:21:48.234Z,1021.83
2018-10-09T00:22:47.838Z,1021.77
2018-10-09T00:23:48.093Z,1021.77
2018-10-09T00:24:48.054Z,1021.75
2018-10-09T00:25:48.219Z,1021.72
2018-10-09T00:26:48.335Z,1021.76
2018-10-09T00:27:48.099Z,1021.75
2018-10-09T00:28:48.083Z,1021.75
2018-10-09T00:29:48.593Z,1021.73
2018-10-09T00:30:47.911Z,1021.74
2018-10-09T00:31:48.364Z,1021.76
2018-10-09T00:32:48.004Z,1021.71
2018-10-09T00:33:48.114Z,1021.72
2018-10-09T00:34:47.920Z,1021.74
2018-10-09T00:35:47.991Z,1021.73
2018-10-09T00:36:48.237Z,1021.75
2018-10-09T00:37:47.854Z,1021.75
2018-10-09T00:38:48.253Z,1021.72
2018-10-09T00:39:47.986Z,1021.73
2018-10-09T00:40:48.161Z,1021.73
2018-10-09T00:41:47.913Z,1021.72
2018-10-09T00:42:47.791Z,1021.69
2018-10-09T00:43:48.076Z,1021.66
2018-10-09T00:44:48.138Z,1021.66
2018-10-09T00:45:48.059Z,1021.62
2018-10-09T00:46:48.257Z,1021.61
2018-10-09T00:47:48.082Z,1021.61
2018-10-09T00:48:47.833Z,1021.61
2018-10-09T00:49:48.309Z,1021.58
2018-10-09T00:50:48.108Z,1021.59
2018-10-09T00:51:48.060Z,1021.63
2018-10-09T00:52:47.987Z,1021.59
2018-10-09T00:53:47.998Z,1021.6
2018-10-09T00:54:48.424Z,1021.63
2018-10-09T00:55:48.076Z,1021.65
2018-10-09T00:56:48.231Z,1021.62
2018-10-09T00:57:48.287Z,1021.55
2018-10-09T00:58:48.062Z,1021.61
2018-10-09T00:59:47.823Z,1021.57
2018-10-09T01:00:48.243Z,1021.55
2018-10-09T01:01:48.005Z,1021.55
2018-10-09T01:02:48.131Z,1021.54
2018-10-09T01:03:48.148Z,1021.53
2018-10-09T01:04:47.953Z,1021.5
2018-10-09T01:05:48.119Z,1021.49
2018-10-09T01:06:47.998Z,1021.5
2018-10-09T01:07:48.036Z,1021.51
2018-10-09T01:08:47.872Z,1021.52
2018-10-09T01:09:48.432Z,1021.5
2018-10-09T01:10:48.113Z,1021.46
2018-10-09T01:11:48.180Z,1021.47
2018-10-09T01:12:48.052Z,1021.44
2018-10-09T01:13:48.541Z,1021.45
2018-10-09T01:14:47.881Z,1021.42
2018-10-09T01:15:47.974Z,1021.41
2018-10-09T01:16:48.326Z,1021.41
2018-10-09T01:17:47.873Z,1021.41
2018-10-09T01:18:48.022Z,1021.41
2018-10-09T01:19:48.041Z,1021.41
2018-10-09T01:20:47.949Z,1021.46
2018-10-09T01:21:48.011Z,1021.49
2018-10-09T01:22:47.952Z,1021.5
2018-10-09T01:23:47.900Z,1021.49
2018-10-09T01:24:48.051Z,1021.51
2018-10-09T01:25:48.034Z,1021.49
2018-10-09T01:26:47.844Z,1021.49
2018-10-09T01:27:47.987Z,1021.49
2018-10-09T01:28:48.363Z,1021.49
2018-10-09T01:29:48.022Z,1021.47
2018-10-09T01:30:47.994Z,1021.45
2018-10-09T01:31:47.820Z,1021.47
2018-10-09T01:32:48.077Z,1021.47
2018-10-09T01:33:47.978Z,1021.46
2018-10-09T01:34:47.838Z,1021.49
2018-10-09T01:35:48.199Z,1021.46
2018-10-09T01:36:47.932Z,1021.46
2018-10-09T01:37:48.057Z,1021.48
2018-10-09T01:38:48.017Z,1021.45
2018-10-09T01:39:48.024Z,1021.46
2018-10-09T01:40:48.197Z,1021.48
2018-10-09T01:41:48.170Z,1021.48
2018-10-09T01:42:48.031Z,1021.45
2018-10-09T01:43:48.135Z,1021.46
2018-10-09T01:44:47.868Z,1021.51
2018-10-09T01:45:48.425Z,1021.51
2018-10-09T01:46:47.917Z,1021.45
2018-10-09T01:47:48.050Z,1021.48
2018-10-09T01:48:47.833Z,1021.42
2018-10-09T01:49:48.201Z,1021.46
2018-10-09T01:50:48.008Z,1021.42
2018-10-09T01:51:47.907Z,1021.42
2018-10-09T01:52:47.900Z,1021.4
2018-10-09T01:53:47.947Z,1021.41
2018-10-09T01:54:48.077Z,1021.43
2018-10-09T01:55:47.998Z,1021.42
2018-10-09T01:56:47.850Z,1021.43
2018-10-09T01:57:48.192Z,1021.43
2018-10-09T01:58:48.046Z,1021.45
2018-10-09T01:59:47.989Z,1021.49
2018-10-09T02:00:48.646Z,1021.49
2018-10-09T02:01:47.863Z,1021.49
2018-10-09T02:02:48.283Z,1021.54
2018-10-09T02:03:48.026Z,1021.54
2018-10-09T02:04:47.895Z,1021.5
2018-10-09T02:05:47.984Z,1021.54
2018-10-09T02:06:47.916Z,1021.59
2018-10-09T02:07:48.285Z,1021.61
2018-10-09T02:08:48.586Z,1021.64
2018-10-09T02:09:48.003Z,1021.65
2018-10-09T02:10:48.021Z,1021.69
2018-10-09T02:11:48.121Z,1021.68
2018-10-09T02:12:48.563Z,1021.72
2018-10-09T02:13:47.847Z,1021.72
2018-10-09T02:14:47.963Z,1021.75
2018-10-09T02:15:47.837Z,1021.75
2018-10-09T02:16:47.965Z,1021.74
2018-10-09T02:17:47.879Z,1021.7
2018-10-09T02:18:48.177Z,1021.69
2018-10-09T02:19:48.145Z,1021.66
2018-10-09T02:20:48.094Z,1021.61
2018-10-09T02:21:47.991Z,1021.61
2018-10-09T02:22:48.017Z,1021.67
2018-10-09T02:23:48.284Z,1021.6
2018-10-09T02:24:48.381Z,1021.61
2018-10-09T02:25:48.004Z,1021.61
2018-10-09T02:26:48.274Z,1021.68
2018-10-09T02:27:47.805Z,1021.72
2018-10-09T02:28:47.982Z,1021.67
2018-10-09T02:29:48.406Z,1021.66
2018-10-09T02:30:48.459Z,1021.7
2018-10-09T02:31:47.876Z,1021.7
2018-10-09T02:32:48.068Z,1021.73
2018-10-09T02:33:48.148Z,1021.76
2018-10-09T02:34:47.901Z,1021.76
2018-10-09T02:35:48.208Z,1021.81
2018-10-09T02:36:48.121Z,1021.8
2018-10-09T02:37:48.404Z,1021.83
2018-10-09T02:38:48.007Z,1021.86
2018-10-09T02:39:48.139Z,1021.84
2018-10-09T02:40:48.094Z,1021.89
2018-10-09T02:41:47.903Z,1021.94
2018-10-09T02:42:47.994Z,1021.84
2018-10-09T02:43:47.940Z,1021.94
2018-10-09T02:44:48.026Z,1021.92
2018-10-09T02:45:48.001Z,1021.86
2018-10-09T02:46:48.112Z,1021.86
2018-10-09T02:47:48.011Z,1021.88
2018-10-09T02:48:47.856Z,1021.83
2018-10-09T02:49:47.966Z,1021.83
2018-10-09T02:50:48.243Z,1021.77
2018-10-09T02:51:47.983Z,1021.78
2018-10-09T02:52:47.925Z,1021.74
2018-10-09T02:53:47.978Z,1021.76
2018-10-09T02:54:48.320Z,1021.75
2018-10-09T02:55:47.950Z,1021.73
2018-10-09T02:56:47.947Z,1021.75
2018-10-09T02:57:47.837Z,1021.78
2018-10-09T02:58:48.132Z,1021.77
2018-10-09T02:59:48.084Z,1021.82
2018-10-09T03:00:47.938Z,1021.79
2018-10-09T03:01:48.077Z,1021.83
2018-10-09T03:02:47.903Z,1021.82
2018-10-09T03:03:48.148Z,1021.79
2018-10-09T03:04:47.909Z,1021.78
2018-10-09T03:05:47.872Z,1021.81
2018-10-09T03:06:48.033Z,1021.82
2018-10-09T03:07:47.767Z,1021.81
2018-10-09T03:08:48.073Z,1021.82
2018-10-09T03:09:48.103Z,1021.83
2018-10-09T03:10:47.876Z,1021.81
2018-10-09T03:11:47.842Z,1021.8
2018-10-09T03:12:48.164Z,1021.85
2018-10-09T03:13:47.957Z,1021.82
2018-10-09T03:14:47.986Z,1021.81
2018-10-09T03:15:47.908Z,1021.76
2018-10-09T03:16:47.956Z,1021.75
2018-10-09T03:17:48.421Z,1021.75
2018-10-09T03:18:47.996Z,1021.78
2018-10-09T03:19:48.072Z,1021.77
2018-10-09T03:20:48.592Z,1021.75
2018-10-09T03:21:47.943Z,1021.74
2018-10-09T03:22:48.201Z,1021.8
2018-10-09T03:23:48.360Z,1021.74
2018-10-09T03:24:47.932Z,1021.78
2018-10-09T03:25:48.181Z,1021.73
2018-10-09T03:26:47.773Z,1021.72
2018-10-09T03:27:48.083Z,1021.79
2018-10-09T03:28:47.905Z,1021.77
2018-10-09T03:29:47.990Z,1021.75
2018-10-09T03:30:47.697Z,1021.74
2018-10-09T03:31:47.905Z,1021.78
2018-10-09T03:32:47.837Z,1021.74
2018-10-09T03:33:48.115Z,1021.78
2018-10-09T03:34:47.885Z,1021.72
2018-10-09T03:35:48.154Z,1021.72
2018-10-09T03:36:47.968Z,1021.69
2018-10-09T03:37:48.156Z,1021.69
2018-10-09T03:38:47.914Z,1021.71
2018-10-09T03:39:48.404Z,1021.71
2018-10-09T03:40:48.118Z,1021.69
2018-10-09T03:41:48.492Z,1021.67
2018-10-09T03:42:48.342Z,1021.7
2018-10-09T03:43:48.270Z,1021.68
2018-10-09T03:44:48.092Z,1021.68
2018-10-09T03:45:48.076Z,1021.71
2018-10-09T03:46:47.963Z,1021.69
2018-10-09T03:47:47.986Z,1021.68
2018-10-09T03:48:47.779Z,1021.71
2018-10-09T03:49:48.188Z,1021.64
2018-10-09T03:50:47.958Z,1021.68
2018-10-09T03:51:48.001Z,1021.63
2018-10-09T03:52:47.850Z,1021.64
2018-10-09T03:53:48.369Z,1021.62
2018-10-09T03:54:47.971Z,1021.64
2018-10-09T03:55:47.977Z,1021.62
2018-10-09T03:56:47.823Z,1021.63
2018-10-09T03:57:48.741Z,1021.64
2018-10-09T03:58:48.038Z,1021.59
2018-10-09T03:59:48.161Z,1021.63
2018-10-09T04:00:48.104Z,1021.58
2018-10-09T04:01:48.514Z,1021.6
2018-10-09T04:02:47.819Z,1021.57
2018-10-09T04:03:47.903Z,1021.57
2018-10-09T04:04:48.318Z,1021.61
2018-10-09T04:05:48.416Z,1021.61
2018-10-09T04:06:47.728Z,1021.55
2018-10-09T04:07:47.929Z,1021.55
2018-10-09T04:08:47.738Z,1021.56
2018-10-09T04:09:48.172Z,1021.58
2018-10-09T04:10:48.026Z,1021.56
2018-10-09T04:11:48.037Z,1021.52
2018-10-09T04:12:48.287Z,1021.53
2018-10-09T04:13:48.139Z,1021.53
2018-10-09T04:14:48.002Z,1021.54
2018-10-09T04:15:47.771Z,1021.55
2018-10-09T04:16:47.836Z,1021.5
2018-10-09T04:17:47.981Z,1021.57
2018-10-09T04:18:48.188Z,1021.53
2018-10-09T04:19:47.723Z,1021.53
2018-10-09T04:20:48.102Z,1021.53
2018-10-09T04:21:48.041Z,1021.55
2018-10-09T04:22:48.290Z,1021.58
2018-10-09T04:23:47.784Z,1021.55
2018-10-09T04:24:47.942Z,1021.6
2018-10-09T04:25:47.801Z,1021.57
2018-10-09T04:26:47.989Z,1021.56
2018-10-09T04:27:48.645Z,1021.62
2018-10-09T04:28:48.012Z,1021.64
2018-10-09T04:29:47.687Z,1021.6
2018-10-09T04:30:47.724Z,1021.65
2018-10-09T04:31:48.465Z,1021.63
2018-10-09T04:32:48.511Z,1021.64
2018-10-09T04:33:47.875Z,1021.68
2018-10-09T04:34:47.742Z,1021.7
2018-10-09T04:35:47.884Z,1021.65
2018-10-09T04:36:48.818Z,1021.66
2018-10-09T04:37:47.810Z,1021.72
2018-10-09T04:38:48.026Z,1021.71
2018-10-09T04:39:48.438Z,1021.72
2018-10-09T04:40:47.819Z,1021.72
2018-10-09T04:41:48.120Z,1021.67
2018-10-09T04:42:47.790Z,1021.72
2018-10-09T04:43:47.918Z,1021.75
2018-10-09T04:44:47.922Z,1021.74
2018-10-09T04:45:48.104Z,1021.82
2018-10-09T04:46:48.188Z,1021.85
2018-10-09T04:47:47.882Z,1021.95
2018-10-09T04:48:48.050Z,1021.89
2018-10-09T04:49:47.832Z,1021.95
2018-10-09T04:50:47.792Z,1021.93
2018-10-09T04:51:48.143Z,1021.96
2018-10-09T04:52:47.948Z,1021.97
2018-10-09T04:53:48.040Z,1021.98
2018-10-09T04:54:48.136Z,1021.97
2018-10-09T04:55:48.111Z,1021.99
2018-10-09T04:56:47.954Z,1021.95
2018-10-09T04:57:48.115Z,1022
2018-10-09T04:58:48.161Z,1021.96
2018-10-09T04:59:48.139Z,1022.01
2018-10-09T05:00:48.417Z,1021.98
2018-10-09T05:01:48.101Z,1021.99
2018-10-09T05:02:47.949Z,1022
2018-10-09T05:03:48.120Z,1021.98
2018-10-09T05:04:48.107Z,1021.97
2018-10-09T05:05:47.855Z,1021.96
2018-10-09T05:06:48.334Z,1022.01
2018-10-09T05:07:47.809Z,1022.05
2018-10-09T05:08:47.798Z,1022.01
2018-10-09T05:09:48.246Z,1022.07
2018-10-09T05:10:48.014Z,1022.09
2018-10-09T05:11:47.930Z,1022.14
2018-10-09T05:12:47.918Z,1022.13
2018-10-09T05:13:47.967Z,1022.14
2018-10-09T05:14:48.688Z,1022.14
2018-10-09T05:15:47.987Z,1022.14
2018-10-09T05:16:48.247Z,1022.14
2018-10-09T05:17:48.352Z,1022.13
2018-10-09T05:18:47.812Z,1022.13
2018-10-09T05:19:48.221Z,1022.07
2018-10-09T05:20:48.229Z,1022.09
2018-10-09T05:21:48.074Z,1022.1
2018-10-09T05:22:47.799Z,1022.12
2018-10-09T05:23:47.733Z,1022.18
2018-10-09T05:24:48.051Z,1022.18
2018-10-09T05:25:47.765Z,1022.2
2018-10-09T05:26:47.853Z,1022.16
2018-10-09T05:27:47.990Z,1022.18
2018-10-09T05:28:47.765Z,1022.21
2018-10-09T05:29:47.942Z,1022.23
2018-10-09T05:30:47.902Z,1022.25
2018-10-09T05:31:47.859Z,1022.22
2018-10-09T05:32:47.845Z,1022.25
2018-10-09T05:33:48.331Z,1022.23
2018-10-09T05:34:47.752Z,1022.22
2018-10-09T05:35:47.951Z,1022.26
2018-10-09T05:36:48.104Z,1022.23
2018-10-09T05:37:48.430Z,1022.27
2018-10-09T05:38:47.908Z,1022.23
2018-10-09T05:39:48.146Z,1022.26
2018-10-09T05:40:47.859Z,1022.25
2018-10-09T05:41:47.975Z,1022.21
2018-10-09T05:42:48.000Z,1022.25
2018-10-09T05:43:47.877Z,1022.26
2018-10-09T05:44:48.291Z,1022.26
2018-10-09T05:45:47.805Z,1022.29
2018-10-09T05:46:48.017Z,1022.22
2018-10-09T05:47:48.009Z,1022.27
2018-10-09T05:48:48.083Z,1022.28
2018-10-09T05:49:47.985Z,1022.34
2018-10-09T05:50:47.890Z,1022.32
2018-10-09T05:51:47.886Z,1022.35
2018-10-09T05:52:48.001Z,1022.36
2018-10-09T05:53:47.800Z,1022.36
2018-10-09T05:54:47.736Z,1022.33
2018-10-09T05:55:47.707Z,1022.35
2018-10-09T05:56:47.886Z,1022.31
2018-10-09T05:57:48.168Z,1022.28
2018-10-09T05:58:47.827Z,1022.3
2018-10-09T05:59:47.887Z,1022.28
2018-10-09T06:00:47.895Z,1022.28
2018-10-09T06:01:48.308Z,1022.25
2018-10-09T06:02:47.757Z,1022.29
2018-10-09T06:03:47.994Z,1022.24
2018-10-09T06:04:47.841Z,1022.25
2018-10-09T06:05:48.135Z,1022.26
2018-10-09T06:06:48.046Z,1022.23
2018-10-09T06:07:48.176Z,1022.3
2018-10-09T06:08:47.770Z,1022.25
2018-10-09T06:09:47.792Z,1022.24
2018-10-09T06:10:48.018Z,1022.26
2018-10-09T06:11:48.482Z,1022.27
2018-10-09T06:12:47.804Z,1022.25
2018-10-09T06:13:48.296Z,1022.23
2018-10-09T06:14:47.944Z,1022.26
2018-10-09T06:15:48.113Z,1022.22
2018-10-09T06:16:47.857Z,1022.29
2018-10-09T06:17:47.834Z,1022.3
2018-10-09T06:18:47.991Z,1022.29
2018-10-09T06:19:47.726Z,1022.36
2018-10-09T06:20:47.919Z,1022.35
2018-10-09T06:21:48.042Z,1022.32
2018-10-09T06:22:47.884Z,1022.32
2018-10-09T06:23:47.739Z,1022.36
2018-10-09T06:24:48.193Z,1022.35
2018-10-09T06:25:48.111Z,1022.34
2018-10-09T06:26:48.086Z,1022.31
2018-10-09T06:27:48.195Z,1022.35
2018-10-09T06:28:47.888Z,1022.31
2018-10-09T06:29:47.848Z,1022.34
2018-10-09T06:30:48.359Z,1022.33
2018-10-09T06:31:47.855Z,1022.35
2018-10-09T06:32:47.847Z,1022.36
2018-10-09T06:33:48.006Z,1022.36
2018-10-09T06:34:48.207Z,1022.31
2018-10-09T06:35:47.892Z,1022.29
2018-10-09T06:36:47.809Z,1022.26
2018-10-09T06:37:48.046Z,1022.29
2018-10-09T06:38:47.840Z,1022.29
2018-10-09T06:39:48.288Z,1022.31
2018-10-09T06:40:48.651Z,1022.3
2018-10-09T06:41:48.055Z,1022.33
2018-10-09T06:42:48.357Z,1022.26
2018-10-09T06:43:47.802Z,1022.34
2018-10-09T06:44:47.981Z,1022.31
2018-10-09T06:45:47.913Z,1022.34
2018-10-09T06:46:47.958Z,1022.33
2018-10-09T06:47:48.337Z,1022.29
2018-10-09T06:48:47.929Z,1022.31
2018-10-09T06:49:47.790Z,1022.34
2018-10-09T06:50:47.883Z,1022.29
2018-10-09T06:51:47.813Z,1022.35
2018-10-09T06:52:47.854Z,1022.33
2018-10-09T06:53:48.865Z,1022.35
2018-10-09T06:54:48.492Z,1022.36
2018-10-09T06:55:47.827Z,1022.34
2018-10-09T06:56:48.170Z,1022.34
2018-10-09T06:57:48.269Z,1022.33
2018-10-09T06:58:47.893Z,1022.37
2018-10-09T06:59:48.134Z,1022.36
2018-10-09T07:00:48.127Z,1022.43
2018-10-09T07:01:47.885Z,1022.42
2018-10-09T07:02:47.825Z,1022.47
2018-10-09T07:03:47.892Z,1022.46
2018-10-09T07:04:47.845Z,1022.48
2018-10-09T07:05:47.920Z,1022.49
2018-10-09T07:06:48.112Z,1022.53
2018-10-09T07:07:47.739Z,1022.53
2018-10-09T07:08:47.790Z,1022.55
2018-10-09T07:09:47.951Z,1022.53
2018-10-09T07:10:47.941Z,1022.51
2018-10-09T07:11:47.901Z,1022.52
2018-10-09T07:12:47.908Z,1022.53
2018-10-09T07:13:48.233Z,1022.54
2018-10-09T07:14:47.962Z,1022.49
2018-10-09T07:15:47.713Z,1022.53
2018-10-09T07:16:48.451Z,1022.53
2018-10-09T07:17:47.706Z,1022.51
2018-10-09T07:18:47.844Z,1022.53
2018-10-09T07:19:47.826Z,1022.53
2018-10-09T07:20:47.721Z,1022.52
2018-10-09T07:21:47.948Z,1022.47
2018-10-09T07:22:47.763Z,1022.54
2018-10-09T07:23:47.727Z,1022.49
2018-10-09T07:24:47.934Z,1022.47
2018-10-09T07:25:48.123Z,1022.48
2018-10-09T07:26:47.738Z,1022.48
2018-10-09T07:27:48.115Z,1022.51
2018-10-09T07:28:47.961Z,1022.47
2018-10-09T07:29:47.778Z,1022.47
2018-10-09T07:30:47.873Z,1022.45
2018-10-09T07:31:47.930Z,1022.48
2018-10-09T07:32:47.920Z,1022.51
2018-10-09T07:33:47.985Z,1022.56
2018-10-09T07:34:48.326Z,1022.58
2018-10-09T07:35:47.761Z,1022.56
2018-10-09T07:36:47.789Z,1022.57
2018-10-09T07:37:47.702Z,1022.6
2018-10-09T07:38:47.909Z,1022.64
2018-10-09T07:39:47.889Z,1022.67
2018-10-09T07:40:48.027Z,1022.63
2018-10-09T07:41:47.918Z,1022.7
2018-10-09T07:42:48.017Z,1022.69
2018-10-09T07:43:47.999Z,1022.73
2018-10-09T07:44:47.920Z,1022.75
2018-10-09T07:45:47.683Z,1022.8
2018-10-09T07:46:47.789Z,1022.81
2018-10-09T07:47:48.048Z,1022.82
2018-10-09T07:48:47.994Z,1022.82
2018-10-09T07:49:47.978Z,1022.84
2018-10-09T07:50:47.705Z,1022.9
2018-10-09T07:51:47.955Z,1022.85
2018-10-09T07:52:48.234Z,1022.85
2018-10-09T07:53:47.945Z,1022.87
2018-10-09T07:54:47.987Z,1022.93
2018-10-09T07:55:47.624Z,1022.89
2018-10-09T07:56:47.677Z,1022.89
2018-10-09T07:57:47.935Z,1022.95
2018-10-09T07:58:48.658Z,1022.92
2018-10-09T07:59:47.859Z,1022.98
2018-10-09T08:00:47.925Z,1023
2018-10-09T08:01:47.964Z,1023
2018-10-09T08:02:47.619Z,1023.01
2018-10-09T08:03:47.892Z,1023
2018-10-09T08:04:48.182Z,1023.04
2018-10-09T08:05:47.762Z,1023.06
2018-10-09T08:06:47.947Z,1023.12
2018-10-09T08:07:47.785Z,1023.11
2018-10-09T08:08:47.910Z,1023.11
2018-10-09T08:09:48.337Z,1023.15
2018-10-09T08:10:48.365Z,1023.1
2018-10-09T08:11:47.893Z,1023.15
2018-10-09T08:12:48.018Z,1023.09
2018-10-09T08:13:47.854Z,1023.1
2018-10-09T08:14:47.938Z,1023.11
2018-10-09T08:15:47.945Z,1023.14
2018-10-09T08:16:47.819Z,1023.12
2018-10-09T08:17:47.854Z,1023.15
2018-10-09T08:18:47.755Z,1023.1
2018-10-09T08:19:47.785Z,1023.19
2018-10-09T08:20:47.822Z,1023.16
2018-10-09T08:21:47.796Z,1023.14
2018-10-09T08:22:48.120Z,1023.15
2018-10-09T08:23:47.935Z,1023.18
2018-10-09T08:24:48.001Z,1023.22
2018-10-09T08:25:47.948Z,1023.19
2018-10-09T08:26:48.181Z,1023.2
2018-10-09T08:27:48.152Z,1023.2
2018-10-09T08:28:47.884Z,1023.21
2018-10-09T08:29:48.006Z,1023.18
2018-10-09T08:30:47.942Z,1023.15
2018-10-09T08:31:47.783Z,1023.16
2018-10-09T08:32:48.009Z,1023.17
2018-10-09T08:33:48.122Z,1023.14
2018-10-09T08:34:47.786Z,1023.16
2018-10-09T08:35:47.911Z,1023.14
2018-10-09T08:36:47.708Z,1023.1
2018-10-09T08:37:47.915Z,1023.14
2018-10-09T08:38:47.709Z,1023.11
2018-10-09T08:39:47.920Z,1023.11
2018-10-09T08:40:47.932Z,1023.14
2018-10-09T08:41:47.770Z,1023.1
2018-10-09T08:42:47.688Z,1023.08
2018-10-09T08:43:47.837Z,1023.07
2018-10-09T08:44:47.757Z,1023.14
2018-10-09T08:45:48.260Z,1023.08
2018-10-09T08:46:47.733Z,1023.1
2018-10-09T08:47:47.736Z,1023.05
2018-10-09T08:48:47.968Z,1023.09
2018-10-09T08:49:47.788Z,1023.05
2018-10-09T08:50:47.747Z,1023.06
2018-10-09T08:51:48.089Z,1023.06
2018-10-09T08:52:47.802Z,1023.03
2018-10-09T08:53:47.897Z,1023.04
2018-10-09T08:54:47.960Z,1023.03
2018-10-09T08:55:47.860Z,1023.07
2018-10-09T08:56:47.826Z,1023.04
2018-10-09T08:57:48.124Z,1022.99
2018-10-09T08:58:48.152Z,1023
2018-10-09T08:59:48.003Z,1022.99
2018-10-09T09:00:47.854Z,1023.01
2018-10-09T09:01:48.114Z,1022.99
2018-10-09T09:02:47.884Z,1023
2018-10-09T09:03:48.084Z,1023
2018-10-09T09:04:47.796Z,1023
2018-10-09T09:05:48.259Z,1023
2018-10-09T09:06:48.087Z,1023.03
2018-10-09T09:07:47.932Z,1022.99
2018-10-09T09:08:47.807Z,1022.98
2018-10-09T09:09:48.581Z,1022.98
2018-10-09T09:10:47.881Z,1022.97
2018-10-09T09:11:48.096Z,1022.96
2018-10-09T09:12:48.239Z,1022.95
2018-10-09T09:13:47.975Z,1022.97
2018-10-09T09:14:47.746Z,1022.96
2018-10-09T09:15:47.953Z,1023.02
2018-10-09T09:16:48.016Z,1023.01
2018-10-09T09:17:47.895Z,1023.04
2018-10-09T09:18:47.821Z,1023
2018-10-09T09:19:47.942Z,1023.03
2018-10-09T09:20:48.021Z,1023.04
2018-10-09T09:21:48.312Z,1023.07
2018-10-09T09:22:48.059Z,1022.99
2018-10-09T09:23:47.893Z,1023.03
2018-10-09T09:24:47.823Z,1023.05
2018-10-09T09:25:47.980Z,1023.02
2018-10-09T09:26:48.497Z,1023.04
2018-10-09T09:27:48.267Z,1023.03
2018-10-09T09:28:48.063Z,1023
2018-10-09T09:29:48.070Z,1023.05
2018-10-09T09:30:47.579Z,1023.04
2018-10-09T09:31:48.017Z,1023.02
2018-10-09T09:32:47.742Z,1023.04
2018-10-09T09:33:48.094Z,1023.02
2018-10-09T09:34:47.848Z,1023
2018-10-09T09:35:47.833Z,1023
2018-10-09T09:36:47.915Z,1022.99
2018-10-09T09:37:48.220Z,1022.99
2018-10-09T09:38:47.798Z,1022.99
2018-10-09T09:39:47.721Z,1022.95
2018-10-09T09:40:47.917Z,1022.94
2018-10-09T09:41:47.794Z,1022.99
2018-10-09T09:42:47.956Z,1022.97
2018-10-09T09:43:47.602Z,1023
2018-10-09T09:44:47.931Z,1022.98
2018-10-09T09:45:47.948Z,1022.98
2018-10-09T09:46:47.734Z,1022.97
2018-10-09T09:47:47.686Z,1023.01
2018-10-09T09:48:47.973Z,1022.92
2018-10-09T09:49:47.756Z,1022.9
2018-10-09T09:50:48.103Z,1022.92
2018-10-09T09:51:48.002Z,1022.89
2018-10-09T09:52:47.875Z,1022.88
2018-10-09T09:53:47.907Z,1022.88
2018-10-09T09:54:47.874Z,1022.9
2018-10-09T09:55:47.585Z,1022.9
2018-10-09T09:56:47.724Z,1022.88
2018-10-09T09:57:48.344Z,1022.89
2018-10-09T09:58:48.672Z,1022.86
2018-10-09T09:59:47.846Z,1022.89
2018-10-09T10:00:47.820Z,1022.91
2018-10-09T10:01:48.070Z,1022.91
2018-10-09T10:02:47.679Z,1022.85
2018-10-09T10:03:48.349Z,1022.87
2018-10-09T10:04:47.810Z,1022.82
2018-10-09T10:05:47.777Z,1022.82
2018-10-09T10:06:47.742Z,1022.75
2018-10-09T10:07:47.908Z,1022.77
2018-10-09T10:08:48.030Z,1022.76
2018-10-09T10:09:47.804Z,1022.71
2018-10-09T10:10:47.903Z,1022.69
2018-10-09T10:11:47.775Z,1022.67
2018-10-09T10:12:47.836Z,1022.67
2018-10-09T10:13:48.134Z,1022.67
2018-10-09T10:14:47.732Z,1022.67
2018-10-09T10:15:47.884Z,1022.64
2018-10-09T10:16:48.292Z,1022.68
2018-10-09T10:17:47.761Z,1022.58
2018-10-09T10:18:48.336Z,1022.58
2018-10-09T10:19:47.873Z,1022.63
2018-10-09T10:20:47.708Z,1022.66
2018-10-09T10:21:47.917Z,1022.61
2018-10-09T10:22:48.091Z,1022.66
2018-10-09T10:23:47.658Z,1022.66
2018-10-09T10:24:47.875Z,1022.66
2018-10-09T10:25:47.931Z,1022.67
2018-10-09T10:26:48.063Z,1022.67
2018-10-09T10:27:47.744Z,1022.63
2018-10-09T10:28:47.803Z,1022.63
2018-10-09T10:29:47.881Z,1022.58
2018-10-09T10:30:48.176Z,1022.57
2018-10-09T10:31:47.814Z,1022.55
2018-10-09T10:32:48.068Z,1022.54
2018-10-09T10:33:47.860Z,1022.56
2018-10-09T10:34:47.780Z,1022.57
2018-10-09T10:35:48.122Z,1022.49
2018-10-09T10:36:48.307Z,1022.55
2018-10-09T10:37:47.974Z,1022.53
2018-10-09T10:38:47.891Z,1022.51
2018-10-09T10:39:48.148Z,1022.49
2018-10-09T10:40:47.919Z,1022.44
2018-10-09T10:41:47.656Z,1022.48
2018-10-09T10:42:47.717Z,1022.41
2018-10-09T10:43:47.902Z,1022.43
2018-10-09T10:44:47.988Z,1022.42
2018-10-09T10:45:47.793Z,1022.42
2018-10-09T10:46:47.845Z,1022.4
2018-10-09T10:47:47.829Z,1022.4
2018-10-09T10:48:48.148Z,1022.41
2018-10-09T10:49:47.557Z,1022.4
2018-10-09T10:50:48.026Z,1022.42
2018-10-09T10:51:47.904Z,1022.39
2018-10-09T10:52:47.802Z,1022.38
2018-10-09T10:53:47.584Z,1022.38
2018-10-09T10:54:48.004Z,1022.43
2018-10-09T10:55:47.651Z,1022.42
2018-10-09T10:56:47.921Z,1022.42
2018-10-09T10:57:47.774Z,1022.39
2018-10-09T10:58:48.018Z,1022.42
2018-10-09T10:59:48.137Z,1022.4
2018-10-09T11:00:48.258Z,1022.34
2018-10-09T11:01:48.366Z,1022.26
2018-10-09T11:02:48.130Z,1022.29
2018-10-09T11:03:47.697Z,1022.24
2018-10-09T11:04:47.808Z,1022.22
2018-10-09T11:05:48.088Z,1022.23
2018-10-09T11:06:47.885Z,1022.24
2018-10-09T11:07:48.251Z,1022.2
2018-10-09T11:08:47.843Z,1022.22
2018-10-09T11:09:47.977Z,1022.2
2018-10-09T11:10:48.063Z,1022.22
2018-10-09T11:11:48.042Z,1022.25
2018-10-09T11:12:47.974Z,1022.22
2018-10-09T11:13:47.918Z,1022.23
2018-10-09T11:14:48.322Z,1022.24
2018-10-09T11:15:47.830Z,1022.23
2018-10-09T11:16:47.778Z,1022.16
2018-10-09T11:17:48.188Z,1022.17
2018-10-09T11:18:47.946Z,1022.17
2018-10-09T11:19:47.724Z,1022.12
2018-10-09T11:20:47.961Z,1022.12
2018-10-09T11:21:47.783Z,1022.1
2018-10-09T11:22:47.893Z,1022.12
2018-10-09T11:23:47.874Z,1022.1
2018-10-09T11:24:47.753Z,1022.1
2018-10-09T11:25:47.576Z,1022.12
2018-10-09T11:26:47.842Z,1022.11
2018-10-09T11:27:47.808Z,1022.16
2018-10-09T11:28:47.793Z,1022.13
2018-10-09T11:29:47.840Z,1022.1
2018-10-09T11:30:47.726Z,1022.06
2018-10-09T11:31:47.812Z,1022.12
2018-10-09T11:32:47.559Z,1022.08
2018-10-09T11:33:48.220Z,1022.07
2018-10-09T11:34:48.053Z,1022.02
2018-10-09T11:35:47.821Z,1022
2018-10-09T11:36:47.777Z,1021.95
2018-10-09T11:37:47.777Z,1021.96
2018-10-09T11:38:47.815Z,1021.95
2018-10-09T11:39:47.847Z,1021.94
2018-10-09T11:40:47.746Z,1021.93
2018-10-09T11:41:47.711Z,1021.86
2018-10-09T11:42:48.238Z,1021.86
2018-10-09T11:43:47.890Z,1021.87
2018-10-09T11:44:47.562Z,1021.87
2018-10-09T11:45:47.738Z,1021.88
2018-10-09T11:46:47.689Z,1021.86
2018-10-09T11:47:47.926Z,1021.88
2018-10-09T11:48:48.208Z,1021.83
2018-10-09T11:49:48.331Z,1021.81
2018-10-09T11:50:47.829Z,1021.82
2018-10-09T11:51:47.895Z,1021.85
2018-10-09T11:52:47.877Z,1021.81
2018-10-09T11:53:47.982Z,1021.83
2018-10-09T11:54:47.877Z,1021.77
2018-10-09T11:55:48.390Z,1021.78
2018-10-09T11:56:47.726Z,1021.81
2018-10-09T11:57:48.000Z,1021.77
2018-10-09T11:58:47.711Z,1021.73
2018-10-09T11:59:47.799Z,1021.74
2018-10-09T12:00:47.743Z,1021.72
2018-10-09T12:01:47.842Z,1021.69
2018-10-09T12:02:48.103Z,1021.69
2018-10-09T12:03:47.821Z,1021.7
2018-10-09T12:04:47.863Z,1021.69
2018-10-09T12:05:48.352Z,1021.67
2018-10-09T12:06:47.790Z,1021.65
2018-10-09T12:07:47.624Z,1021.66
2018-10-09T12:08:47.711Z,1021.61